Time;durP1;ratioP1;P1;durP2;ratioP2;P2;SDS_P1;SDS_P2;PMS_P1;PMS_P2;Temp;Humidity;BMP_temperature;BMP_pressure;BME280_temperature;BME280_humidity;BME280_pressure;Samples;Min_cycle;Max_cycle;Signal;HPM_P1;HPM_P2
2021/04/20 00:02:23;;;;;;;26.92;20.65;;;10.60;92.40;;;;;;5012822;28;20030;-82
2021/04/20 00:04:49;;;;;;;29.67;21.42;;;10.60;92.10;;;;;;5035275;28;20418;-82
2021/04/20 00:07:16;;;;;;;27.65;21.30;;;10.60;92.10;;;;;;4997487;28;20391;-82
2021/04/20 00:09:43;;;;;;;30.38;21.67;;;10.60;92.20;;;;;;4997333;28;20060;-82
2021/04/20 00:12:09;;;;;;;28.10;20.40;;;10.60;92.10;;;;;;5014765;28;20030;-82
2021/04/20 00:14:35;;;;;;;30.20;20.65;;;10.50;92.10;;;;;;5017988;28;20137;-82
2021/04/20 00:17:03;;;;;;;28.83;21.50;;;10.50;92.10;;;;;;5003923;28;20057;-82
2021/04/20 00:19:28;;;;;;;31.17;21.92;;;10.50;92.10;;;;;;5013126;28;20029;-82
2021/04/20 00:21:54;;;;;;;30.67;21.75;;;10.40;92.20;;;;;;5006755;28;20043;-82
2021/04/20 00:24:19;;;;;;;28.00;21.85;;;10.40;92.10;;;;;;5004157;28;20499;-82
2021/04/20 00:26:45;;;;;;;29.63;22.38;;;10.40;92.20;;;;;;4996152;28;20490;-82
2021/04/20 00:29:11;;;;;;;28.10;21.48;;;10.40;92.20;;;;;;5017412;28;20037;-82
2021/04/20 00:31:37;;;;;;;30.52;21.70;;;10.30;92.20;;;;;;4998865;28;20083;-82
2021/04/20 00:34:03;;;;;;;28.90;22.35;;;10.30;92.30;;;;;;5015326;28;20030;-82
2021/04/20 00:36:28;;;;;;;29.00;22.83;;;10.30;92.40;;;;;;4981773;28;20033;-82
2021/04/20 00:38:54;;;;;;;29.60;21.75;;;10.30;92.40;;;;;;5015436;28;20533;-82
2021/04/20 00:41:20;;;;;;;30.10;21.42;;;10.30;92.50;;;;;;5039661;28;20375;-82
2021/04/20 00:43:47;;;;;;;30.92;22.25;;;10.30;92.40;;;;;;5000762;28;20501;-82
2021/04/20 00:46:15;;;;;;;31.77;22.50;;;10.20;92.80;;;;;;4988493;28;20096;-82
2021/04/20 00:48:41;;;;;;;31.15;23.58;;;10.20;92.70;;;;;;5007917;28;20042;-81
2021/04/20 00:51:07;;;;;;;31.75;22.95;;;10.10;92.60;;;;;;4994400;28;20034;-82
2021/04/20 00:53:34;;;;;;;30.42;21.83;;;10.10;92.50;;;;;;4990534;28;20038;-81
2021/04/20 00:56:01;;;;;;;29.73;21.90;;;10.10;92.60;;;;;;5008443;28;20030;-82
2021/04/20 00:58:26;;;;;;;30.60;23.23;;;10.00;92.70;;;;;;4977785;28;20084;-81
2021/04/20 01:00:53;;;;;;;29.92;22.63;;;10.10;93.00;;;;;;4995292;28;20027;-82
2021/04/20 01:03:19;;;;;;;32.33;23.55;;;10.00;92.70;;;;;;5006411;28;20105;-81
2021/04/20 01:05:46;;;;;;;30.95;22.05;;;10.00;92.80;;;;;;4993867;28;20496;-81
2021/04/20 01:08:14;;;;;;;31.35;22.85;;;10.00;92.90;;;;;;5004713;28;20020;-82
2021/04/20 01:10:54;;;;;;;31.77;23.58;;;10.00;92.90;;;;;;4998039;28;20085;-82
2021/04/20 01:13:22;;;;;;;30.50;22.43;;;9.90;93.20;;;;;;5004742;28;20109;-81
2021/04/20 01:15:53;;;;;;;32.47;23.40;;;9.90;93.00;;;;;;5011434;28;20022;-81
2021/04/20 01:18:27;;;;;;;31.73;22.55;;;9.90;93.00;;;;;;4995065;28;20030;-81
2021/04/20 01:20:58;;;;;;;32.88;23.13;;;9.80;93.00;;;;;;4993576;28;20027;-81
2021/04/20 01:24:02;;;;;;;32.22;22.63;;;9.90;93.00;;;;;;5002066;28;20026;-81
2021/04/20 01:26:33;;;;;;;32.75;23.13;;;9.80;93.10;;;;;;5012991;28;20045;-81
2021/04/20 01:29:01;;;;;;;35.05;24.67;;;9.80;93.10;;;;;;5014427;28;20021;-81
2021/04/20 01:31:28;;;;;;;32.95;23.15;;;9.80;93.00;;;;;;4999142;28;20033;-82
2021/04/20 01:33:54;;;;;;;33.97;23.77;;;9.80;93.10;;;;;;4993054;28;20050;-81
2021/04/20 01:36:22;;;;;;;34.05;24.50;;;9.70;93.10;;;;;;5004690;28;20810;-81
2021/04/20 01:38:49;;;;;;;34.13;24.63;;;9.70;93.20;;;;;;4998696;28;20102;-81
2021/04/20 01:41:15;;;;;;;31.88;22.88;;;9.70;93.20;;;;;;5014123;28;20029;-81
2021/04/20 01:43:41;;;;;;;34.90;24.85;;;9.70;93.30;;;;;;5031426;28;20025;-81
2021/04/20 01:46:07;;;;;;;33.45;24.35;;;9.60;93.20;;;;;;5023281;28;20562;-81
2021/04/20 01:48:33;;;;;;;34.47;24.75;;;9.60;93.30;;;;;;4980926;28;20036;-81
2021/04/20 01:51:00;;;;;;;31.77;23.35;;;9.60;93.20;;;;;;5008528;28;20046;-81
2021/04/20 01:53:26;;;;;;;34.70;25.15;;;9.60;93.30;;;;;;4996411;28;20120;-79
2021/04/20 01:56:04;;;;;;;35.28;24.10;;;9.60;93.40;;;;;;4982353;28;20030;-80
2021/04/20 01:58:31;;;;;;;34.70;24.33;;;9.60;93.30;;;;;;5009256;28;20027;-80
2021/04/20 02:00:58;;;;;;;35.95;25.00;;;9.50;93.30;;;;;;4995148;28;20125;-80
2021/04/20 02:03:28;;;;;;;32.40;24.08;;;9.50;93.30;;;;;;4995682;28;20033;-80
2021/04/20 02:05:55;;;;;;;32.97;23.60;;;9.50;93.40;;;;;;5014166;28;20060;-80
2021/04/20 02:08:21;;;;;;;33.50;24.52;;;9.50;93.20;;;;;;5022792;28;20472;-80
2021/04/20 02:10:48;;;;;;;34.47;26.33;;;9.40;93.50;;;;;;4998669;28;20033;-80
2021/04/20 02:13:15;;;;;;;34.38;23.92;;;9.40;93.40;;;;;;5006617;28;20030;-80
2021/04/20 02:15:41;;;;;;;35.90;25.90;;;9.40;93.50;;;;;;5005767;28;20102;-80
2021/04/20 02:18:09;;;;;;;31.95;23.60;;;9.40;93.60;;;;;;4989105;28;20032;-80
2021/04/20 02:20:37;;;;;;;36.88;25.80;;;9.30;93.50;;;;;;5014955;28;20159;-80
2021/04/20 02:23:03;;;;;;;34.17;24.95;;;9.30;93.60;;;;;;5015172;28;20018;-80
2021/04/20 02:25:30;;;;;;;35.50;24.77;;;9.30;93.60;;;;;;4983000;28;20049;-79
2021/04/20 02:27:56;;;;;;;37.72;25.13;;;9.30;93.60;;;;;;5025539;28;20021;-80
2021/04/20 02:30:24;;;;;;;36.40;25.02;;;9.30;93.60;;;;;;5001404;28;20055;-80
2021/04/20 02:32:51;;;;;;;38.15;25.65;;;9.20;93.60;;;;;;4990463;28;20026;-80
2021/04/20 02:35:19;;;;;;;35.55;25.38;;;9.20;93.60;;;;;;4995588;28;20061;-79
2021/04/20 02:37:55;;;;;;;34.28;24.00;;;9.20;93.50;;;;;;5008939;28;20038;-80
2021/04/20 02:40:24;;;;;;;35.42;25.05;;;9.20;93.50;;;;;;5047360;28;20033;-80
2021/04/20 02:42:51;;;;;;;34.88;25.15;;;9.10;93.50;;;;;;5017125;28;20431;-80
2021/04/20 02:45:19;;;;;;;36.22;25.70;;;9.10;93.60;;;;;;4996554;28;20495;-80
2021/04/20 02:47:45;;;;;;;35.00;24.10;;;9.10;93.50;;;;;;5032679;28;20033;-80
2021/04/20 02:50:21;;;;;;;37.28;25.20;;;9.00;93.40;;;;;;5035983;28;20250;-80
2021/04/20 02:52:50;;;;;;;33.78;24.80;;;9.00;93.50;;;;;;5036685;28;20044;-80
2021/04/20 02:55:16;;;;;;;35.20;23.73;;;9.00;93.50;;;;;;5036655;28;20446;-79
2021/04/20 02:57:45;;;;;;;35.90;23.70;;;8.90;93.50;;;;;;5036893;28;20053;-80
2021/04/20 03:00:13;;;;;;;36.13;24.52;;;8.90;93.60;;;;;;5036636;28;20120;-80
2021/04/20 03:03:17;;;;;;;36.20;25.08;;;8.90;93.50;;;;;;5019074;28;20021;-80
2021/04/20 03:05:42;;;;;;;34.58;24.50;;;8.80;93.60;;;;;;5019097;28;20025;-80
2021/04/20 03:08:09;;;;;;;37.72;25.10;;;8.80;93.60;;;;;;5002613;28;20033;-80
2021/04/20 03:10:41;;;;;;;34.78;24.58;;;8.80;93.50;;;;;;5018632;28;20029;-80
2021/04/20 03:13:07;;;;;;;33.05;23.08;;;8.70;93.60;;;;;;5018869;28;20021;-80
2021/04/20 03:15:34;;;;;;;35.60;24.90;;;8.70;93.70;;;;;;5022048;28;20022;-80
2021/04/20 03:18:00;;;;;;;35.60;24.13;;;8.70;93.80;;;;;;4999427;28;20034;-80
2021/04/20 03:20:26;;;;;;;35.60;24.30;;;8.70;93.80;;;;;;5016566;28;20022;-80
2021/04/20 03:22:54;;;;;;;35.67;24.52;;;8.70;93.70;;;;;;5032809;28;20044;-81
2021/04/20 03:25:24;;;;;;;32.45;22.98;;;8.70;93.60;;;;;;5015932;28;20489;-80
2021/04/20 03:27:53;;;;;;;35.88;24.73;;;8.60;93.60;;;;;;5015470;28;20025;-80
2021/04/20 03:30:26;;;;;;;35.67;23.85;;;8.60;93.70;;;;;;5025639;28;20414;-80
2021/04/20 03:33:06;;;;;;;38.10;24.67;;;8.60;93.70;;;;;;5015958;28;20399;-80
2021/04/20 03:36:04;;;;;;;34.80;24.25;;;8.60;93.80;;;;;;5026655;28;20037;-80
2021/04/20 03:38:57;;;;;;;37.05;25.25;;;8.50;93.80;;;;;;4973245;28;20033;-80
2021/04/20 03:41:27;;;;;;;40.55;27.65;;;8.50;94.00;;;;;;5003013;28;20433;-80
2021/04/20 03:43:57;;;;;;;37.50;26.55;;;8.50;94.10;;;;;;5017449;28;20076;-80
2021/04/20 03:46:28;;;;;;;42.08;27.90;;;8.50;94.10;;;;;;5016824;28;20060;-79
2021/04/20 03:49:03;;;;;;;38.28;25.23;;;8.50;94.20;;;;;;5026627;28;20046;-80
2021/04/20 03:51:31;;;;;;;40.28;27.30;;;8.50;94.20;;;;;;5015045;28;20030;-80
2021/04/20 03:54:06;;;;;;;40.55;27.13;;;8.40;94.00;;;;;;5022853;28;20160;-80
2021/04/20 03:56:33;;;;;;;37.92;26.73;;;8.40;93.90;;;;;;5003071;28;20059;-80
2021/04/20 03:59:02;;;;;;;38.78;26.05;;;8.40;94.10;;;;;;4996194;28;20092;-80
2021/04/20 04:01:35;;;;;;;42.33;26.20;;;8.40;94.20;;;;;;5016654;28;20025;-79
2021/04/20 04:04:01;;;;;;;36.55;24.00;;;8.40;94.20;;;;;;5016751;28;20074;-80
2021/04/20 04:06:28;;;;;;;38.78;26.95;;;8.40;94.20;;;;;;5004394;28;20045;-79
2021/04/20 04:08:55;;;;;;;37.40;25.83;;;8.30;94.00;;;;;;4996893;28;20025;-80
2021/04/20 04:11:23;;;;;;;40.67;26.77;;;8.40;94.10;;;;;;4986380;28;20112;-79
2021/04/20 04:13:50;;;;;;;36.33;25.27;;;8.30;94.10;;;;;;5037468;28;20053;-80
2021/04/20 04:16:21;;;;;;;36.00;25.45;;;8.30;94.40;;;;;;5025830;28;20389;-80
2021/04/20 04:18:51;;;;;;;40.63;26.17;;;8.30;94.10;;;;;;5017979;28;20503;-80
2021/04/20 04:21:26;;;;;;;39.72;25.83;;;8.20;93.80;;;;;;5014422;28;20022;-80
2021/04/20 04:23:56;;;;;;;40.28;25.90;;;8.20;93.60;;;;;;4998553;28;20030;-80
2021/04/20 04:26:28;;;;;;;37.63;25.33;;;8.10;93.60;;;;;;5042783;28;20021;-80
2021/04/20 04:28:59;;;;;;;42.90;26.85;;;8.10;93.90;;;;;;5024589;28;20025;-80
2021/04/20 04:31:27;;;;;;;39.58;26.30;;;8.10;94.00;;;;;;4992074;28;20036;-80
2021/04/20 04:33:52;;;;;;;39.30;26.08;;;8.00;94.00;;;;;;5024181;28;20021;-80
2021/04/20 04:36:19;;;;;;;35.72;25.45;;;8.00;94.00;;;;;;4983406;28;20076;-80
2021/04/20 04:38:46;;;;;;;37.53;25.50;;;8.00;93.90;;;;;;5019585;28;20048;-79
2021/04/20 04:41:12;;;;;;;41.78;27.05;;;8.00;94.00;;;;;;5030283;28;20029;-81
2021/04/20 04:43:40;;;;;;;37.80;25.00;;;8.00;94.10;;;;;;4996377;28;20036;-81
2021/04/20 04:46:13;;;;;;;36.75;24.23;;;7.90;94.20;;;;;;5016068;28;20067;-81
2021/04/20 04:48:39;;;;;;;35.92;25.08;;;7.90;94.00;;;;;;5045313;28;20038;-80
2021/04/20 04:51:07;;;;;;;35.50;24.25;;;7.90;93.80;;;;;;5033848;28;20088;-81
2021/04/20 04:53:33;;;;;;;37.13;23.38;;;7.90;94.10;;;;;;5011396;28;20033;-80
2021/04/20 04:56:01;;;;;;;34.65;22.25;;;7.90;93.90;;;;;;5006801;28;20029;-80
2021/04/20 04:58:46;;;;;;;32.80;22.25;;;7.80;94.00;;;;;;5012962;28;20072;-80
2021/04/20 05:01:13;;;;;;;32.20;21.15;;;7.80;94.30;;;;;;5023608;28;20029;-80
2021/04/20 05:03:40;;;;;;;32.50;20.88;;;7.80;94.30;;;;;;4995754;28;20126;-80
2021/04/20 05:06:07;;;;;;;30.75;20.60;;;7.80;94.40;;;;;;5008274;28;20467;-80
2021/04/20 05:08:33;;;;;;;33.35;21.90;;;7.80;94.40;;;;;;5014646;28;20378;-83
2021/04/20 05:11:03;;;;;;;33.63;23.05;;;7.80;94.40;;;;;;5014813;28;20116;-81
2021/04/20 05:13:30;;;;;;;36.80;23.60;;;7.80;94.60;;;;;;5033260;28;20041;-80
2021/04/20 05:15:56;;;;;;;38.03;24.00;;;7.80;94.60;;;;;;5015212;28;20532;-80
2021/04/20 05:18:25;;;;;;;39.55;25.08;;;7.80;94.70;;;;;;5032684;28;20458;-80
2021/04/20 05:20:51;;;;;;;38.63;24.20;;;7.80;94.70;;;;;;5014803;28;20056;-80
2021/04/20 05:23:17;;;;;;;40.75;26.85;;;7.80;94.70;;;;;;5003352;28;20561;-80
2021/04/20 05:25:44;;;;;;;38.42;25.35;;;7.80;94.80;;;;;;5016812;28;20045;-77
2021/04/20 05:28:10;;;;;;;36.38;24.15;;;7.80;94.80;;;;;;5000041;28;20029;-80
2021/04/20 05:30:36;;;;;;;35.88;24.45;;;7.80;94.90;;;;;;5002995;28;20021;-80
2021/04/20 05:33:03;;;;;;;37.20;24.25;;;7.90;95.00;;;;;;5014894;28;20419;-80
2021/04/20 05:35:29;;;;;;;37.80;25.63;;;7.90;95.00;;;;;;4995561;28;20034;-80
2021/04/20 05:37:55;;;;;;;37.03;25.00;;;7.90;95.00;;;;;;5006996;28;20036;-81
2021/04/20 05:40:26;;;;;;;35.92;24.52;;;7.90;95.10;;;;;;4981595;28;20029;-80
2021/04/20 05:42:53;;;;;;;39.42;25.50;;;7.90;95.10;;;;;;5013042;28;20104;-81
2021/04/20 05:45:19;;;;;;;37.33;24.17;;;7.90;95.10;;;;;;5011730;28;20107;-81
2021/04/20 05:47:47;;;;;;;38.47;24.40;;;8.00;95.20;;;;;;5015820;28;20051;-81
2021/04/20 05:50:21;;;;;;;38.10;25.05;;;8.00;95.20;;;;;;5001937;23;20053;-81
2021/04/20 05:52:47;;;;;;;34.53;22.40;;;8.00;95.30;;;;;;4975895;28;20087;-82
2021/04/20 05:55:14;;;;;;;36.03;23.27;;;8.10;95.30;;;;;;5012139;28;20168;-81
2021/04/20 05:57:43;;;;;;;33.55;22.48;;;8.10;95.30;;;;;;4999170;28;20537;-81
2021/04/20 06:00:10;;;;;;;32.33;21.77;;;8.20;95.30;;;;;;4991395;28;20044;-80
2021/04/20 06:02:37;;;;;;;33.28;22.73;;;8.20;95.30;;;;;;4970813;28;20029;-81
2021/04/20 06:05:08;;;;;;;31.25;21.52;;;8.20;95.20;;;;;;5011831;28;20093;-81
2021/04/20 06:07:35;;;;;;;34.60;21.40;;;8.30;95.20;;;;;;5009550;28;20099;-81
2021/04/20 06:10:05;;;;;;;29.17;20.02;;;8.30;95.20;;;;;;4989040;28;20037;-81
2021/04/20 06:12:32;;;;;;;33.42;22.63;;;8.40;95.10;;;;;;4994461;28;20022;-79
2021/04/20 06:14:58;;;;;;;34.67;22.52;;;8.40;95.10;;;;;;4966018;28;20034;-80
2021/04/20 06:17:24;;;;;;;34.63;21.83;;;8.50;95.10;;;;;;4999924;28;20026;-81
2021/04/20 06:19:51;;;;;;;35.28;23.05;;;8.50;95.10;;;;;;4968075;28;20476;-79
2021/04/20 06:22:17;;;;;;;37.08;23.13;;;8.60;95.10;;;;;;4981074;28;20477;-79
2021/04/20 06:24:45;;;;;;;35.20;22.55;;;8.60;95.10;;;;;;4967356;28;20484;-81
2021/04/20 06:27:12;;;;;;;39.70;25.63;;;8.70;95.20;;;;;;5006603;28;20022;-81
2021/04/20 06:29:38;;;;;;;41.67;27.45;;;8.80;95.20;;;;;;4985497;28;20072;-81
2021/04/20 06:32:05;;;;;;;41.40;27.55;;;8.80;95.30;;;;;;5012245;28;20395;-81
2021/04/20 06:34:31;;;;;;;36.88;24.95;;;8.90;95.30;;;;;;5005471;28;20488;-79
2021/04/20 06:36:58;;;;;;;38.30;24.48;;;8.90;95.30;;;;;;4986719;28;20033;-79
2021/04/20 06:39:24;;;;;;;38.58;25.55;;;9.00;95.30;;;;;;4994385;28;20018;-79
2021/04/20 06:41:52;;;;;;;38.08;25.60;;;9.10;95.30;;;;;;4994571;28;20076;-79
2021/04/20 06:44:23;;;;;;;37.97;25.65;;;9.10;95.30;;;;;;4978225;28;20010;-79
2021/04/20 06:47:22;;;;;;;41.92;26.75;;;9.20;95.30;;;;;;4986465;28;20022;-79
2021/04/20 06:50:00;;;;;;;43.97;27.67;;;9.30;95.30;;;;;;4994359;28;20535;-79
2021/04/20 06:52:49;;;;;;;38.35;26.48;;;9.40;95.40;;;;;;4985417;28;20440;-80
2021/04/20 06:55:44;;;;;;;42.25;27.98;;;9.40;95.30;;;;;;5009506;28;20109;-81
2021/04/20 06:58:18;;;;;;;38.38;25.95;;;9.50;95.40;;;;;;4979400;28;20491;-80
2021/04/20 07:01:01;;;;;;;38.25;25.90;;;9.60;95.30;;;;;;5012745;28;20042;-80
2021/04/20 07:07:27;;;;;;;42.80;27.95;;;9.80;95.30;;;;;;5011535;28;20096;-80
2021/04/20 07:10:10;;;;;;;42.20;28.00;;;9.80;95.30;;;;;;5002232;28;20391;-80
2021/04/20 07:12:37;;;;;;;37.05;25.83;;;9.90;95.20;;;;;;5007804;28;20045;-80
2021/04/20 07:15:04;;;;;;;39.95;27.15;;;10.00;95.20;;;;;;5010768;28;20040;-80
2021/04/20 07:17:36;;;;;;;38.45;27.38;;;10.10;95.30;;;;;;4984197;28;20041;-80
2021/04/20 07:20:39;;;;;;;36.72;24.95;;;10.20;95.20;;;;;;4975525;28;20476;-80
2021/04/20 07:23:25;;;;;;;37.60;25.38;;;10.30;95.20;;;;;;5010848;28;20391;-80
2021/04/20 07:26:03;;;;;;;32.42;23.65;;;10.40;95.20;;;;;;4997981;28;20113;-80
2021/04/20 07:28:50;;;;;;;36.30;25.85;;;10.50;95.10;;;;;;4980164;28;20030;-80
2021/04/20 07:31:31;;;;;;;36.30;25.13;;;10.60;95.20;;;;;;5010741;28;20057;-80
2021/04/20 07:37:40;;;;;;;34.28;24.45;;;10.90;95.10;;;;;;5014321;28;20080;-80
2021/04/20 07:40:22;;;;;;;35.28;24.80;;;10.90;95.00;;;;;;5000526;28;20092;-80
2021/04/20 07:43:10;;;;;;;36.05;25.63;;;11.10;95.00;;;;;;4997773;28;20026;-80
2021/04/20 07:46:28;;;;;;;39.00;25.98;;;11.20;94.90;;;;;;5009891;28;20080;-79
2021/04/20 07:49:04;;;;;;;34.97;25.25;;;11.40;95.10;;;;;;4940528;28;20125;-80
2021/04/20 07:51:42;;;;;;;36.80;25.60;;;11.50;94.90;;;;;;4984613;28;20030;-79
2021/04/20 07:54:15;;;;;;;33.65;23.73;;;11.60;94.80;;;;;;5014761;28;20045;-78
2021/04/20 07:56:45;;;;;;;36.75;25.73;;;11.70;94.70;;;;;;5015277;28;20479;-79
2021/04/20 07:59:20;;;;;;;35.38;26.77;;;11.80;94.60;;;;;;4983091;28;20061;-78
2021/04/20 08:01:54;;;;;;;33.05;24.50;;;12.00;94.50;;;;;;5013583;28;20085;-78
2021/04/20 08:04:57;;;;;;;33.05;23.35;;;12.10;94.30;;;;;;4983587;28;20026;-79
2021/04/20 08:07:41;;;;;;;30.92;22.10;;;12.20;94.20;;;;;;5013904;28;20113;-79
2021/04/20 08:10:10;;;;;;;31.33;22.13;;;12.30;94.10;;;;;;4997359;28;20029;-78
2021/04/20 08:13:10;;;;;;;28.42;21.30;;;12.40;94.00;;;;;;5007204;28;20062;-77
2021/04/20 08:16:14;;;;;;;28.90;21.55;;;12.50;93.80;;;;;;4999404;28;20113;-79
2021/04/20 08:18:54;;;;;;;26.35;19.25;;;12.70;93.70;;;;;;5013687;28;20116;-79
2021/04/20 08:21:21;;;;;;;25.83;18.90;;;12.80;93.50;;;;;;4996907;28;20479;-79
2021/04/20 08:23:50;;;;;;;26.83;19.08;;;12.90;93.40;;;;;;4977305;28;20022;-78
2021/04/20 08:26:23;;;;;;;24.42;19.10;;;13.10;93.50;;;;;;5014199;28;20028;-79
2021/04/20 08:28:56;;;;;;;22.85;18.13;;;13.20;93.30;;;;;;4996718;28;20030;-77
2021/04/20 08:31:28;;;;;;;24.80;18.88;;;13.30;93.20;;;;;;4991508;28;20022;-82
2021/04/20 08:34:00;;;;;;;21.48;16.60;;;13.40;93.10;;;;;;4996596;28;20030;-79
2021/04/20 08:36:55;;;;;;;20.05;15.32;;;13.50;92.90;;;;;;5014279;28;20471;-80
2021/04/20 08:40:00;;;;;;;18.23;14.48;;;13.60;92.50;;;;;;4978467;28;20041;-80
2021/04/20 08:42:44;;;;;;;21.50;14.35;;;13.70;92.30;;;;;;4971662;28;20128;-80
2021/04/20 08:45:28;;;;;;;19.00;14.52;;;13.90;92.10;;;;;;4992861;28;20030;-79
2021/04/20 08:48:23;;;;;;;21.48;15.60;;;14.00;91.80;;;;;;4978349;28;20113;-79
2021/04/20 08:51:18;;;;;;;22.58;17.42;;;14.10;91.50;;;;;;5014021;28;20065;-79
2021/04/20 08:54:12;;;;;;;22.48;16.73;;;14.20;91.50;;;;;;5011706;28;20034;-79
2021/04/20 08:56:37;;;;;;;20.73;16.33;;;14.40;91.00;;;;;;5013935;28;20018;-80
2021/04/20 08:59:40;;;;;;;21.52;17.17;;;14.50;90.70;;;;;;4991943;28;20057;-80
2021/04/20 09:02:19;;;;;;;21.17;17.30;;;14.60;88.30;;;;;;5008744;28;20030;-80
2021/04/20 09:05:23;;;;;;;17.77;13.85;;;14.70;89.70;;;;;;4997052;28;20034;-80
2021/04/20 09:08:12;;;;;;;21.15;14.85;;;14.80;86.20;;;;;;5011437;28;20034;-80
2021/04/20 09:11:10;;;;;;;18.15;14.55;;;14.90;88.10;;;;;;5005241;28;20460;-80
2021/04/20 09:14:01;;;;;;;19.15;14.77;;;15.00;87.30;;;;;;5003717;28;20022;-80
2021/04/20 09:16:44;;;;;;;15.60;13.05;;;15.10;87.00;;;;;;5004144;28;20052;-80
2021/04/20 09:19:12;;;;;;;15.75;12.93;;;15.20;87.30;;;;;;4995111;28;20025;-80
2021/04/20 09:21:41;;;;;;;15.82;12.20;;;15.40;86.70;;;;;;5012877;28;20534;-80
2021/04/20 09:24:22;;;;;;;15.25;12.13;;;15.40;86.40;;;;;;4981652;28;20026;-80
2021/04/20 09:27:12;;;;;;;14.73;11.73;;;15.60;86.40;;;;;;4999896;28;20018;-80
2021/04/20 09:29:55;;;;;;;13.32;10.05;;;15.70;85.70;;;;;;4999237;28;20014;-80
2021/04/20 09:32:24;;;;;;;17.38;13.10;;;15.80;85.70;;;;;;5013278;28;20014;-80
2021/04/20 09:34:51;;;;;;;17.80;14.45;;;15.90;83.40;;;;;;4995315;28;20459;-80
2021/04/20 09:37:19;;;;;;;16.42;13.35;;;16.00;82.90;;;;;;4996036;28;20444;-80
2021/04/20 09:39:49;;;;;;;16.15;12.60;;;16.10;81.10;;;;;;4995768;28;20084;-80
2021/04/20 09:42:23;;;;;;;14.93;12.07;;;16.20;81.30;;;;;;5012935;28;20396;-80
2021/04/20 09:45:16;;;;;;;17.90;14.77;;;16.30;79.60;;;;;;5012797;28;20473;-80
2021/04/20 09:48:13;;;;;;;18.33;13.95;;;16.40;78.10;;;;;;5012877;28;20144;-80
2021/04/20 09:51:10;;;;;;;17.27;13.73;;;16.50;75.80;;;;;;4990444;28;20057;-81
2021/04/20 09:54:06;;;;;;;16.33;11.90;;;16.50;76.60;;;;;;5001287;28;20060;-80
2021/04/20 09:56:45;;;;;;;17.55;14.13;;;16.60;76.20;;;;;;5003103;28;20766;-80
2021/04/20 09:59:17;;;;;;;15.20;12.45;;;16.70;75.30;;;;;;4994110;28;20497;-80
2021/04/20 10:01:57;;;;;;;14.85;12.23;;;16.80;73.10;;;;;;4994287;28;20509;-80
2021/04/20 10:04:41;;;;;;;14.52;11.85;;;16.90;74.60;;;;;;5004930;28;20019;-81
2021/04/20 10:07:31;;;;;;;14.30;11.57;;;17.00;74.50;;;;;;4994469;28;20056;-78
2021/04/20 10:10:35;;;;;;;15.13;11.95;;;17.10;74.50;;;;;;5012411;28;20026;-80
2021/04/20 10:13:31;;;;;;;16.27;12.45;;;17.20;72.80;;;;;;4981100;28;20046;-80
2021/04/20 10:16:08;;;;;;;14.18;11.25;;;17.30;70.10;;;;;;4984739;28;20488;-80
2021/04/20 10:19:25;;;;;;;12.35;9.82;;;17.40;70.80;;;;;;5012360;28;20109;-79
2021/04/20 10:21:57;;;;;;;13.50;10.68;;;17.40;69.60;;;;;;4989304;28;20045;-80
2021/04/20 10:24:24;;;;;;;12.63;10.60;;;17.50;70.60;;;;;;4991162;28;20037;-80
2021/04/20 10:27:10;;;;;;;15.10;11.70;;;17.60;69.70;;;;;;4993009;28;20037;-80
2021/04/20 10:30:02;;;;;;;14.55;10.65;;;17.70;67.40;;;;;;4987217;28;20030;-80
2021/04/20 10:32:54;;;;;;;12.85;10.40;;;17.80;63.60;;;;;;5012154;28;20112;-80
2021/04/20 10:35:39;;;;;;;12.57;9.95;;;17.80;64.60;;;;;;4973896;28;20038;-80
2021/04/20 10:38:17;;;;;;;11.48;9.48;;;17.90;66.80;;;;;;4988564;28;20022;-80
2021/04/20 10:40:45;;;;;;;12.07;10.43;;;18.00;66.10;;;;;;4998571;28;20479;-79
2021/04/20 10:43:16;;;;;;;13.10;10.65;;;18.00;65.80;;;;;;4978604;28;20030;-79
2021/04/20 10:45:43;;;;;;;13.43;10.60;;;18.10;65.10;;;;;;4998737;28;20040;-80
2021/04/20 10:48:12;;;;;;;12.82;10.50;;;18.10;66.10;;;;;;4982244;28;20439;-79
2021/04/20 10:50:39;;;;;;;12.65;10.55;;;18.20;65.60;;;;;;5004715;28;20426;-79
2021/04/20 10:53:12;;;;;;;14.80;11.88;;;18.40;62.30;;;;;;4986449;28;20391;-79
2021/04/20 10:55:45;;;;;;;11.98;10.30;;;18.40;59.10;;;;;;4996767;28;20049;-80
2021/04/20 10:58:12;;;;;;;12.15;10.32;;;18.50;62.10;;;;;;4985245;28;20026;-79
2021/04/20 11:00:39;;;;;;;13.60;10.95;;;18.60;63.30;;;;;;4992760;28;20034;-81
2021/04/20 11:03:07;;;;;;;14.45;12.07;;;18.60;62.50;;;;;;4977106;28;20026;-80
2021/04/20 11:05:33;;;;;;;15.30;12.38;;;18.70;62.10;;;;;;4980297;28;20114;-80
2021/04/20 11:07:59;;;;;;;14.60;11.27;;;18.70;60.20;;;;;;4987413;28;20117;-81
2021/04/20 11:10:34;;;;;;;12.98;10.98;;;18.70;60.50;;;;;;5010448;28;20026;-80
2021/04/20 11:12:59;;;;;;;12.07;9.43;;;18.80;59.60;;;;;;5016617;28;20034;-80
2021/04/20 11:15:27;;;;;;;12.98;8.98;;;18.90;58.20;;;;;;4999122;28;20172;-80
2021/04/20 11:17:55;;;;;;;11.00;9.32;;;18.90;56.70;;;;;;5010046;28;20053;-80
2021/04/20 11:20:42;;;;;;;11.43;9.18;;;19.00;58.10;;;;;;4997681;28;20046;-80
2021/04/20 11:23:11;;;;;;;10.07;8.07;;;19.10;57.90;;;;;;4997559;28;20046;-80
2021/04/20 11:25:43;;;;;;;10.43;8.27;;;19.10;58.00;;;;;;4990673;28;20117;-80
2021/04/20 11:28:17;;;;;;;12.07;8.88;;;19.20;56.60;;;;;;4992697;28;20025;-80
2021/04/20 11:30:55;;;;;;;11.18;8.48;;;19.30;55.60;;;;;;4978911;28;20039;-80
2021/04/20 11:33:30;;;;;;;10.02;8.90;;;19.40;56.80;;;;;;4984076;28;20022;-80
2021/04/20 11:36:26;;;;;;;11.32;9.88;;;19.40;57.50;;;;;;4996619;28;20058;-80
2021/04/20 11:39:05;;;;;;;15.32;10.75;;;19.50;54.90;;;;;;5013025;28;20053;-80
2021/04/20 11:41:37;;;;;;;12.43;9.60;;;19.50;56.40;;;;;;5010974;28;20056;-80
2021/04/20 11:44:04;;;;;;;12.13;8.95;;;19.50;56.00;;;;;;4983182;28;20254;-79
2021/04/20 11:46:32;;;;;;;13.95;10.57;;;19.60;54.20;;;;;;4961891;28;20023;-80
2021/04/20 11:49:10;;;;;;;11.40;9.88;;;19.60;53.80;;;;;;4985339;23;20061;-80
2021/04/20 11:51:39;;;;;;;11.45;9.63;;;19.70;55.20;;;;;;4981543;28;20027;-80
2021/04/20 11:54:06;;;;;;;12.15;10.20;;;19.80;55.20;;;;;;4977587;28;20045;-80
2021/04/20 11:56:49;;;;;;;10.77;9.48;;;19.80;54.70;;;;;;4958474;28;20046;-80
2021/04/20 11:59:23;;;;;;;10.55;8.98;;;19.90;53.60;;;;;;4965773;28;20049;-80
2021/04/20 12:01:49;;;;;;;11.70;9.75;;;20.00;54.80;;;;;;4977271;28;20152;-80
2021/04/20 12:04:22;;;;;;;10.43;8.77;;;20.10;55.20;;;;;;4988513;28;20101;-80
2021/04/20 12:06:50;;;;;;;10.60;8.88;;;20.20;56.70;;;;;;4988293;28;20106;-80
2021/04/20 12:09:29;;;;;;;11.60;8.82;;;20.30;55.70;;;;;;4977400;28;20077;-80
2021/04/20 12:11:57;;;;;;;10.45;8.82;;;20.40;53.20;;;;;;4994840;28;20498;-79
2021/04/20 12:14:26;;;;;;;11.98;9.65;;;20.50;54.80;;;;;;4977275;28;20061;-79
2021/04/20 12:16:57;;;;;;;13.07;11.60;;;20.60;53.60;;;;;;4977483;28;20030;-79
2021/04/20 12:19:31;;;;;;;15.00;11.63;;;20.60;52.70;;;;;;4958140;28;20077;-79
2021/04/20 12:21:58;;;;;;;20.90;11.20;;;20.60;54.30;;;;;;4976088;28;20045;-79
2021/04/20 12:24:26;;;;;;;13.10;11.13;;;20.70;52.50;;;;;;4945073;28;20019;-79
2021/04/20 12:26:56;;;;;;;13.45;11.85;;;20.70;52.10;;;;;;4988841;28;20023;-80
2021/04/20 12:29:43;;;;;;;14.20;12.03;;;20.70;51.90;;;;;;4987190;28;20027;-80
2021/04/20 12:32:16;;;;;;;13.70;11.45;;;20.70;51.70;;;;;;4975798;28;20284;-80
2021/04/20 12:34:42;;;;;;;14.18;12.40;;;20.70;52.90;;;;;;4976215;28;20440;-80
2021/04/20 12:37:09;;;;;;;13.45;11.55;;;20.70;50.50;;;;;;4971375;28;20138;-80
2021/04/20 12:39:47;;;;;;;13.90;11.63;;;20.70;52.30;;;;;;4971802;28;20588;-80
2021/04/20 12:42:17;;;;;;;14.32;11.70;;;20.80;50.80;;;;;;4993059;28;20031;-79
2021/04/20 12:44:47;;;;;;;15.57;12.70;;;20.70;52.90;;;;;;4960353;28;20038;-79
2021/04/20 12:47:14;;;;;;;14.93;12.15;;;20.70;50.50;;;;;;4975119;28;20348;-79
2021/04/20 12:49:47;;;;;;;14.25;12.25;;;20.70;51.30;;;;;;4970607;28;20043;-79
2021/04/20 12:52:17;;;;;;;13.00;10.60;;;20.80;51.60;;;;;;4970186;28;20109;-79
2021/04/20 12:54:45;;;;;;;14.60;12.73;;;20.80;53.30;;;;;;4976686;28;20026;-79
2021/04/20 12:57:16;;;;;;;15.43;12.85;;;20.90;50.10;;;;;;4976931;28;20065;-79
2021/04/20 12:59:47;;;;;;;12.65;11.30;;;20.90;49.60;;;;;;4959218;28;20023;-79
2021/04/20 13:02:19;;;;;;;15.60;13.48;;;20.90;49.70;;;;;;4970063;28;20031;-80
2021/04/20 13:04:46;;;;;;;15.90;12.50;;;20.90;50.10;;;;;;4990799;28;20031;-80
2021/04/20 13:07:13;;;;;;;18.50;13.13;;;21.00;52.10;;;;;;4977292;28;20030;-80
2021/04/20 13:09:41;;;;;;;15.75;12.00;;;21.00;49.40;;;;;;4964084;28;20062;-80
2021/04/20 13:12:13;;;;;;;16.17;11.20;;;21.10;50.80;;;;;;4973244;28;20543;-80